createdAt,value
2023-12-26T00:02:34.460Z,19.40
2023-12-26T00:07:36.207Z,26.10
2023-12-26T00:12:37.915Z,19.35
2023-12-26T00:17:39.841Z,19.50
2023-12-26T00:22:41.624Z,15.70
2023-12-26T00:27:43.722Z,18.38
2023-12-26T00:32:45.741Z,16.77
2023-12-26T00:37:47.511Z,14.98
2023-12-26T00:42:49.331Z,14.80
2023-12-26T00:47:51.357Z,19.20
2023-12-26T00:52:53.452Z,13.65
2023-12-26T00:57:55.429Z,15.15
2023-12-26T01:02:57.473Z,15.02
2023-12-26T01:07:59.621Z,13.52
2023-12-26T01:13:01.496Z,12.07
2023-12-26T01:18:06.100Z,13.75
2023-12-26T01:23:07.999Z,12.55
2023-12-26T01:28:09.692Z,13.43
2023-12-26T01:33:11.664Z,12.07
2023-12-26T01:38:13.476Z,12.95
2023-12-26T01:43:16.019Z,9.80
2023-12-26T01:48:17.942Z,13.43
2023-12-26T01:53:19.919Z,11.05
2023-12-26T01:58:22.900Z,10.00
2023-12-26T02:03:24.897Z,10.45
2023-12-26T02:08:26.917Z,10.77
2023-12-26T02:13:28.678Z,13.43
2023-12-26T02:18:31.351Z,12.35
2023-12-26T02:23:35.904Z,11.52
2023-12-26T02:28:39.200Z,10.65
2023-12-26T02:33:41.564Z,13.07
2023-12-26T02:38:43.429Z,9.35
2023-12-26T02:43:46.141Z,10.15
2023-12-26T02:48:48.971Z,8.45
2023-12-26T02:53:53.065Z,3.90
2023-12-26T02:58:54.808Z,9.40
2023-12-26T03:03:56.583Z,7.57
2023-12-26T03:08:58.394Z,10.40
2023-12-26T03:14:00.968Z,7.00
2023-12-26T03:19:02.948Z,5.05
2023-12-26T03:24:05.096Z,8.05
2023-12-26T03:29:06.937Z,4.07
2023-12-26T03:34:09.029Z,6.22
2023-12-26T03:39:11.041Z,10.73
2023-12-26T03:44:12.879Z,8.73
2023-12-26T03:49:14.969Z,11.82
2023-12-26T03:54:16.784Z,10.23
2023-12-26T04:18:09.733Z,9.30
2023-12-26T04:23:28.235Z,8.48
2023-12-26T04:28:30.199Z,8.40
2023-12-26T04:33:32.368Z,7.05
2023-12-26T04:38:34.725Z,8.02
2023-12-26T04:43:36.547Z,10.32
2023-12-26T04:48:38.545Z,11.75
2023-12-26T04:53:40.388Z,11.57
2023-12-26T04:58:42.239Z,10.45
2023-12-26T05:03:45.385Z,9.18
2023-12-26T05:08:47.677Z,10.35
2023-12-26T05:13:50.447Z,9.20
2023-12-26T05:18:53.252Z,11.25
2023-12-26T05:23:55.275Z,9.23
2023-12-26T05:28:57.659Z,10.95
2023-12-26T05:34:00.305Z,7.40
2023-12-26T05:39:02.393Z,11.75
2023-12-26T05:44:04.217Z,7.72
2023-12-26T05:49:06.348Z,6.55
2023-12-26T05:54:08.343Z,8.70
2023-12-26T05:59:10.405Z,8.43
2023-12-26T06:04:12.446Z,11.00
2023-12-26T06:09:14.627Z,6.22
2023-12-26T06:14:16.603Z,10.35
2023-12-26T06:19:19.068Z,12.25
2023-12-26T06:24:20.969Z,10.48
2023-12-26T06:29:22.798Z,9.23
2023-12-26T06:34:24.952Z,9.13
2023-12-26T06:39:26.802Z,8.73
2023-12-26T06:44:28.637Z,12.93
2023-12-26T06:49:33.831Z,8.18
2023-12-26T06:54:35.818Z,9.40
2023-12-26T06:59:37.734Z,10.23
2023-12-26T07:04:41.681Z,8.60
2023-12-26T07:09:43.374Z,11.00
2023-12-26T07:14:45.244Z,7.22
2023-12-26T07:19:46.991Z,11.48
2023-12-26T07:24:48.766Z,9.25
2023-12-26T07:29:50.527Z,9.35
2023-12-26T07:34:53.312Z,11.10
2023-12-26T07:39:55.196Z,13.57
2023-12-26T07:44:59.992Z,11.20
2023-12-26T07:50:03.480Z,6.45
2023-12-26T07:55:06.851Z,11.45
2023-12-26T08:00:10.933Z,7.80
2023-12-26T08:05:15.989Z,12.88
2023-12-26T08:10:17.797Z,14.73
2023-12-26T08:15:19.629Z,10.82
2023-12-26T08:20:21.336Z,11.48
2023-12-26T08:25:22.992Z,8.75
2023-12-26T08:30:24.854Z,12.43
2023-12-26T08:35:27.106Z,14.68
2023-12-26T08:40:28.940Z,10.13
2023-12-26T08:45:32.322Z,12.43
2023-12-26T08:50:34.191Z,13.60
2023-12-26T08:55:36.036Z,11.10
2023-12-26T09:00:37.750Z,10.45
2023-12-26T09:05:41.553Z,13.15
2023-12-26T09:10:44.896Z,10.23
2023-12-26T09:15:46.623Z,6.88
2023-12-26T09:20:48.355Z,18.02
2023-12-26T09:25:50.080Z,13.18
2023-12-26T09:30:51.819Z,15.18
2023-12-26T09:35:53.525Z,12.18
2023-12-26T09:40:55.355Z,16.63
2023-12-26T09:45:58.028Z,12.57
2023-12-26T09:51:05.146Z,14.02
2023-12-26T09:56:09.336Z,13.93
2023-12-26T10:01:12.719Z,11.02
2023-12-26T10:06:15.940Z,10.73
2023-12-26T10:11:17.761Z,12.85
2023-12-26T10:16:20.656Z,8.65
2023-12-26T10:21:22.825Z,9.38
2023-12-26T10:26:24.764Z,11.73
2023-12-26T10:31:28.323Z,9.23
2023-12-26T10:36:31.017Z,14.13
2023-12-26T10:41:32.965Z,9.25
2023-12-26T10:46:35.417Z,10.10
2023-12-26T10:51:42.261Z,8.88
2023-12-26T10:56:45.370Z,16.23
2023-12-26T11:01:48.811Z,13.90
2023-12-26T11:06:51.639Z,12.85
2023-12-26T11:11:53.517Z,12.65
2023-12-26T11:16:55.335Z,8.85
2023-12-26T11:21:57.164Z,10.05
2023-12-26T11:27:04.456Z,10.95
2023-12-26T11:32:06.399Z,11.63
2023-12-26T11:37:08.552Z,11.25
2023-12-26T11:42:10.479Z,13.50
2023-12-26T11:47:23.274Z,12.85
2023-12-26T11:52:25.735Z,11.30
2023-12-26T11:57:27.631Z,8.43
2023-12-26T12:02:29.483Z,12.20
2023-12-26T12:07:31.247Z,10.55
2023-12-26T12:12:33.082Z,9.63
2023-12-26T12:17:40.416Z,8.65
2023-12-26T12:22:42.381Z,9.45
2023-12-26T12:28:12.948Z,10.55
2023-12-26T12:33:21.275Z,10.75
2023-12-26T12:38:23.285Z,8.30
2023-12-26T12:43:35.550Z,8.70
2023-12-26T12:48:40.191Z,10.70
2023-12-26T12:53:41.932Z,10.25
2023-12-26T12:58:43.666Z,10.95
2023-12-26T13:03:45.530Z,13.13
2023-12-26T13:08:47.488Z,8.57
2023-12-26T13:13:49.283Z,11.10
2023-12-26T13:18:51.010Z,11.45
2023-12-26T13:23:52.728Z,13.13
2023-12-26T13:28:54.411Z,7.90
2023-12-26T13:33:58.598Z,12.95
2023-12-26T13:39:00.492Z,8.30
2023-12-26T13:44:02.204Z,4.85
2023-12-26T13:49:03.999Z,6.93
2023-12-26T13:54:05.801Z,10.57
2023-12-26T13:59:07.571Z,10.18
2023-12-26T14:04:09.486Z,5.78
2023-12-26T14:09:11.542Z,5.40
2023-12-26T14:14:13.331Z,3.55
2023-12-26T14:19:15.457Z,3.90
2023-12-26T14:24:20.304Z,5.13
2023-12-26T14:29:30.363Z,8.90
2023-12-26T14:34:40.654Z,4.68
2023-12-26T14:39:42.581Z,4.80
2023-12-26T14:44:44.442Z,7.75
2023-12-26T14:49:47.384Z,4.80
2023-12-26T14:54:49.395Z,3.97
2023-12-26T14:59:51.105Z,6.72
2023-12-26T15:04:52.904Z,7.35
2023-12-26T15:09:54.613Z,6.80
2023-12-26T15:14:56.408Z,6.65
2023-12-26T15:19:58.266Z,10.77
2023-12-26T15:25:00.210Z,5.90
2023-12-26T15:30:02.037Z,6.47
2023-12-26T15:35:05.653Z,6.45
2023-12-26T15:40:08.321Z,7.10
2023-12-26T15:45:10.704Z,6.72
2023-12-26T15:50:12.984Z,5.95
2023-12-26T15:55:14.948Z,6.25
2023-12-26T16:00:17.137Z,12.20
2023-12-26T16:05:18.841Z,4.20
2023-12-26T16:10:21.568Z,5.38
2023-12-26T16:15:23.325Z,14.15
2023-12-26T16:20:25.101Z,13.52
2023-12-26T16:25:26.802Z,12.45
2023-12-26T16:30:28.873Z,6.10
2023-12-26T16:35:30.716Z,8.57
2023-12-26T16:40:32.493Z,7.55
2023-12-26T16:45:34.367Z,8.73
2023-12-26T16:50:36.248Z,6.45
2023-12-26T16:55:38.008Z,9.73
2023-12-26T17:00:40.430Z,11.48
2023-12-26T17:05:51.468Z,21.10
2023-12-26T17:10:54.809Z,12.00
2023-12-26T17:15:56.580Z,14.20
2023-12-26T17:20:58.318Z,10.73
2023-12-26T17:26:00.047Z,9.75
2023-12-26T17:31:04.400Z,11.48
2023-12-26T17:36:06.457Z,10.88
2023-12-26T17:41:08.238Z,12.57
2023-12-26T17:46:15.814Z,10.05
2023-12-26T17:51:17.607Z,11.80
2023-12-26T17:56:24.618Z,7.95
2023-12-26T18:01:29.693Z,10.20
2023-12-26T18:06:31.776Z,13.15
2023-12-26T18:11:34.056Z,10.80
2023-12-26T18:16:39.306Z,11.13
2023-12-26T18:21:45.965Z,10.23
2023-12-26T18:26:48.105Z,9.60
2023-12-26T18:31:50.565Z,12.15
2023-12-26T18:36:52.275Z,14.05
2023-12-26T18:41:54.352Z,13.95
2023-12-26T18:46:56.420Z,16.92
2023-12-26T18:51:58.451Z,17.65
2023-12-26T18:57:00.197Z,14.93
2023-12-26T19:02:02.080Z,19.15
2023-12-26T19:07:03.970Z,17.45
2023-12-26T19:12:08.939Z,14.73
2023-12-26T19:17:10.625Z,24.27
2023-12-26T19:22:12.391Z,31.00
2023-12-26T19:27:14.190Z,26.10
2023-12-26T19:32:15.980Z,20.75
2023-12-26T19:37:17.809Z,27.35
2023-12-26T19:42:19.714Z,28.75
2023-12-26T19:47:21.984Z,24.75
2023-12-26T19:52:23.684Z,28.58
2023-12-26T19:57:26.753Z,25.17
2023-12-26T20:02:28.488Z,23.90
2023-12-26T20:07:30.282Z,20.73
2023-12-26T20:12:32.327Z,26.80
2023-12-26T20:17:34.843Z,20.80
2023-12-26T20:22:36.693Z,32.65
2023-12-26T20:27:38.529Z,25.08
2023-12-26T20:32:40.270Z,29.13
2023-12-26T20:37:43.248Z,32.38
2023-12-26T20:42:44.965Z,29.58
2023-12-26T20:47:46.712Z,28.92
2023-12-26T20:52:48.487Z,31.85
2023-12-26T20:57:50.443Z,33.40
2023-12-26T21:02:52.211Z,28.90
2023-12-26T21:07:54.349Z,22.30
2023-12-26T21:12:56.356Z,26.38
2023-12-26T21:17:59.876Z,20.88
2023-12-26T21:23:02.169Z,21.70
2023-12-26T21:28:04.128Z,18.52
2023-12-26T21:33:05.865Z,31.23
2023-12-26T21:38:07.768Z,33.33
2023-12-26T21:43:09.492Z,30.33
2023-12-26T21:48:14.483Z,28.95
2023-12-26T21:53:16.366Z,45.33
2023-12-26T21:58:18.259Z,32.58
2023-12-26T22:03:20.211Z,31.10
2023-12-26T22:08:22.269Z,41.45
2023-12-26T22:13:24.027Z,40.30
2023-12-26T22:18:25.957Z,34.40
2023-12-26T22:23:30.498Z,27.35
2023-12-26T22:28:32.696Z,25.65
2023-12-26T22:33:34.786Z,29.17
2023-12-26T22:38:37.355Z,29.15
2023-12-26T22:43:39.043Z,22.35
2023-12-26T22:48:42.045Z,25.25
2023-12-26T22:53:44.397Z,23.98
2023-12-26T22:58:46.100Z,22.08
2023-12-26T23:03:48.040Z,28.70
2023-12-26T23:08:49.891Z,31.02
2023-12-26T23:13:52.438Z,25.60
2023-12-26T23:18:54.303Z,23.10
2023-12-26T23:23:56.898Z,21.75
2023-12-26T23:28:58.712Z,23.45
2023-12-26T23:34:01.008Z,20.13
2023-12-26T23:39:02.959Z,20.17
2023-12-26T23:44:04.743Z,23.25
2023-12-26T23:49:06.815Z,20.65
2023-12-26T23:54:08.675Z,19.65
2023-12-26T23:59:10.739Z,20.85
